Terminal Aerodrome Forecast
Issued by NWS Dallas/Fort Worth, TX

Home | Current Version | Previous Version | Text Only | Print | Product List | Glossary On
Versions: 1 2 3 4 5 6 7 8 9 10 11 12 13 14 15 16 17 18 19 20 21 22 23 24 25 26 27 28 29 30 31
042
FTUS44 KFWD 232332
TAFDFW
TAF
KDFW 232332Z 2400/2506 16017KT P6SM SCT070
     FM240600 17018KT P6SM VCTS SCT040CB BKN250
     FM240900 16014KT P6SM BKN022
     FM241600 17020KT P6SM SCT040=

USA.gov is the U.S. government's official web portal to all federal, state and local government web resources and services.